Terminal Aerodrome Forecast
Issued by NWS

Home | Current Version | Previous Version | Text Only | Print | Product List | Glossary On
Versions: 1 2 3 4 5 6 7 8 9 10 11 12 13 14
000
FTUS46 KSEW 031747
TAFBLI
TAF
KBLI 031747Z 0318/0418 17008KT P6SM -SHRA BKN030 OVC060
     FM031900 17008KT P6SM VCSH BKN030 BKN080
     FM040100 VRB04KT P6SM BKN060
     FM040400 14003KT P6SM SCT060 BKN100
     FM040900 VRB03KT P6SM SCT020 BKN050=

USA.gov is the U.S. government's official web portal to all federal, state and local government web resources and services.